Time;durP1;ratioP1;P1;durP2;ratioP2;P2;SDS_P1;SDS_P2;PMS_P1;PMS_P2;Temp;Humidity;BMP_temperature;BMP_pressure;BME280_temperature;BME280_humidity;BME280_pressure;Samples;Min_cycle;Max_cycle;Signal;HPM_P1;HPM_P2
2021/09/25 00:00:31;;;;;;;;;;;;;;;7.61;89.60;97441.46;117020;1177;69099;-72
2021/09/25 00:03:04;;;;;;;;;;;;;;;7.56;90.27;97447.09;117010;1177;67440;-72
2021/09/25 00:05:35;;;;;;;;;;;;;;;7.54;90.34;97451.89;117051;1177;59523;-70
2021/09/25 00:08:05;;;;;;;;;;;;;;;7.50;90.56;97451.98;117005;1177;59533;-70
2021/09/25 00:10:35;;;;;;;;;;;;;;;7.48;90.92;97452.29;117040;1177;71359;-75
2021/09/25 00:13:05;;;;;;;;;;;;;;;7.48;90.86;97457.45;117068;1177;68483;-71
2021/09/25 00:15:34;;;;;;;;;;;;;;;7.50;90.97;97457.54;116911;1177;68436;-74
2021/09/25 00:18:09;;;;;;;;;;;;;;;7.49;91.35;97456.93;116936;1177;59567;-72
2021/09/25 00:20:46;;;;;;;;;;;;;;;7.50;91.42;97465.34;116963;1177;59536;-74
2021/09/25 00:23:25;;;;;;;;;;;;;;;7.55;91.31;97469.75;117100;1177;71246;-70
2021/09/25 00:25:54;;;;;;;;;;;;;;;7.58;91.71;97473.04;117019;1177;68264;-72
2021/09/25 00:28:24;;;;;;;;;;;;;;;7.61;91.93;97478.20;117022;1177;69068;-75
2021/09/25 00:30:53;;;;;;;;;;;;;;;7.64;91.91;97479.90;117010;1177;60194;-71
2021/09/25 00:33:22;;;;;;;;;;;;;;;7.70;91.76;97482.55;117042;1177;59519;-74
2021/09/25 00:35:51;;;;;;;;;;;;;;;7.75;91.34;97487.98;117007;1177;71414;-70
2021/09/25 00:38:22;;;;;;;;;;;;;;;7.79;90.77;97488.41;117034;1177;68471;-70
2021/09/25 00:40:51;;;;;;;;;;;;;;;7.83;90.19;97494.40;117042;1177;69220;-74
2021/09/25 00:43:21;;;;;;;;;;;;;;;7.84;89.84;97500.56;117038;1177;59544;-73
2021/09/25 00:45:51;;;;;;;;;;;;;;;7.79;90.85;97500.55;117066;1177;59508;-71
2021/09/25 00:48:20;;;;;;;;;;;;;;;7.78;91.16;97501.33;117021;1177;71268;-70
2021/09/25 00:50:49;;;;;;;;;;;;;;;7.78;91.22;97504.23;116984;1177;68223;-74
2021/09/25 00:53:19;;;;;;;;;;;;;;;7.80;91.29;97505.52;117020;1177;69076;-70
2021/09/25 00:55:48;;;;;;;;;;;;;;;7.81;91.28;97508.77;117032;1177;59580;-74
2021/09/25 00:58:18;;;;;;;;;;;;;;;7.86;90.91;97515.24;117063;1177;59478;-70
2021/09/25 01:00:52;;;;;;;;;;;;;;;7.87;90.66;97514.45;116945;1177;71143;-74
2021/09/25 01:03:35;;;;;;;;;;;;;;;7.83;90.83;97512.44;116914;1177;68511;-73
2021/09/25 01:06:11;;;;;;;;;;;;;;;7.72;91.15;97512.58;116999;1177;68751;-74
2021/09/25 01:08:41;;;;;;;;;;;;;;;7.68;91.35;97515.77;117056;1176;59549;-73
2021/09/25 01:11:17;;;;;;;;;;;;;;;7.71;91.51;97518.75;116973;1177;59516;-69
2021/09/25 01:13:54;;;;;;;;;;;;;;;7.70;91.42;97517.59;116968;1177;70773;-71
2021/09/25 01:16:24;;;;;;;;;;;;;;;7.64;91.49;97521.20;117029;1177;69220;-74
2021/09/25 01:19:06;;;;;;;;;;;;;;;7.57;91.52;97521.79;116982;1177;69218;-70
2021/09/25 01:21:35;;;;;;;;;;;;;;;7.52;91.76;97524.72;117051;1177;59515;-72
2021/09/25 01:24:05;;;;;;;;;;;;;;;7.55;91.82;97527.48;116997;1177;59542;-69
2021/09/25 01:26:33;;;;;;;;;;;;;;;7.56;91.78;97529.11;117023;1177;71168;-69
2021/09/25 01:29:03;;;;;;;;;;;;;;;7.58;91.84;97530.95;117031;1177;69281;-73
2021/09/25 01:31:32;;;;;;;;;;;;;;;7.60;91.73;97535.88;117053;1177;69680;-71
2021/09/25 01:34:02;;;;;;;;;;;;;;;7.62;91.23;97535.52;117031;1177;59605;-70
2021/09/25 01:36:31;;;;;;;;;;;;;;;7.64;90.60;97540.10;117209;1176;59490;-75
2021/09/25 01:39:01;;;;;;;;;;;;;;;7.65;90.36;97543.35;117167;1177;71355;-75
2021/09/25 01:41:30;;;;;;;;;;;;;;;7.63;90.81;97546.59;117083;1177;68531;-70
2021/09/25 01:44:00;;;;;;;;;;;;;;;7.58;91.00;97549.64;116954;1177;69059;-70
2021/09/25 01:46:29;;;;;;;;;;;;;;;7.48;91.24;97552.20;117063;1177;59500;-72
2021/09/25 01:48:59;;;;;;;;;;;;;;;7.45;91.64;97555.34;117114;1177;59485;-75
2021/09/25 01:51:28;;;;;;;;;;;;;;;7.39;91.66;97554.77;116877;1179;71608;-70
2021/09/25 01:54:03;;;;;;;;;;;;;;;7.38;91.54;97554.80;117025;1177;69022;-73
2021/09/25 01:56:42;;;;;;;;;;;;;;;7.42;91.48;97561.38;116934;1176;69262;-70
2021/09/25 01:59:26;;;;;;;;;;;;;;;7.46;91.30;97562.19;117082;1177;59564;-73
2021/09/25 02:01:56;;;;;;;;;;;;;;;7.49;91.18;97560.12;117050;1177;59551;-72
2021/09/25 02:04:26;;;;;;;;;;;;;;;7.53;90.90;97558.63;117071;1177;71371;-74
2021/09/25 02:06:55;;;;;;;;;;;;;;;7.53;90.99;97563.30;117080;1177;68439;-72
2021/09/25 02:09:25;;;;;;;;;;;;;;;7.54;90.85;97569.17;117095;1177;68717;-70
2021/09/25 02:11:54;;;;;;;;;;;;;;;7.54;90.79;97576.27;116998;1177;59526;-76
2021/09/25 02:14:24;;;;;;;;;;;;;;;7.53;90.64;97578.91;116892;1177;59526;-70
2021/09/25 02:16:54;;;;;;;;;;;;;;;7.55;90.46;97581.74;117028;1177;70691;-70
2021/09/25 02:19:24;;;;;;;;;;;;;;;7.51;90.51;97586.88;117027;1177;69212;-75
2021/09/25 02:21:54;;;;;;;;;;;;;;;7.46;90.59;97588.72;117056;1177;68248;-76
2021/09/25 02:24:26;;;;;;;;;;;;;;;7.46;90.36;97589.04;117000;1177;59524;-73
2021/09/25 02:27:02;;;;;;;;;;;;;;;7.48;90.09;97593.78;117044;1177;59529;-70
2021/09/25 02:29:32;;;;;;;;;;;;;;;7.50;89.71;97597.66;117060;1177;70382;-70
2021/09/25 02:32:02;;;;;;;;;;;;;;;7.52;89.52;97601.50;117110;1177;68450;-74
2021/09/25 02:34:32;;;;;;;;;;;;;;;7.56;89.52;97605.10;116946;1177;69253;-70
2021/09/25 02:37:03;;;;;;;;;;;;;;;7.59;89.35;97608.77;117123;1177;59493;-74
2021/09/25 02:39:33;;;;;;;;;;;;;;;7.59;89.47;97606.83;116967;1175;59498;-70
2021/09/25 02:42:03;;;;;;;;;;;;;;;7.50;89.85;97609.46;117003;1177;71208;-75
2021/09/25 02:44:32;;;;;;;;;;;;;;;7.43;89.90;97615.74;116930;1177;68506;-76
2021/09/25 02:47:02;;;;;;;;;;;;;;;7.33;90.36;97621.85;117041;1177;69065;-76
2021/09/25 02:49:32;;;;;;;;;;;;;;;7.33;90.25;97627.21;117099;1177;59535;-69
2021/09/25 02:52:01;;;;;;;;;;;;;;;7.31;90.44;97628.05;116922;1180;59541;-70
2021/09/25 02:54:30;;;;;;;;;;;;;;;7.25;90.55;97630.98;117019;1177;71375;-74
2021/09/25 02:56:59;;;;;;;;;;;;;;;7.12;90.72;97634.27;116999;1177;68449;-71
2021/09/25 02:59:30;;;;;;;;;;;;;;;7.12;90.90;97637.40;117132;1177;69033;-70
2021/09/25 03:01:59;;;;;;;;;;;;;;;7.12;91.06;97637.95;116965;1177;59507;-69
2021/09/25 03:04:29;;;;;;;;;;;;;;;7.11;91.04;97644.73;116841;1177;59479;-74
2021/09/25 03:07:19;;;;;;;;;;;;;;;7.11;91.03;97642.69;116984;1177;70560;-70
2021/09/25 03:09:57;;;;;;;;;;;;;;;7.16;90.75;97645.18;117031;1177;69236;-74
2021/09/25 03:12:26;;;;;;;;;;;;;;;7.20;90.32;97644.30;116965;1177;69237;-72
2021/09/25 03:14:56;;;;;;;;;;;;;;;7.23;89.97;97648.61;117051;1177;59522;-69
2021/09/25 03:17:25;;;;;;;;;;;;;;;7.27;89.39;97645.98;116929;1177;59577;-70
2021/09/25 03:19:55;;;;;;;;;;;;;;;7.28;89.31;97648.86;117018;1177;70414;-69
2021/09/25 03:22:25;;;;;;;;;;;;;;;7.28;89.28;97654.59;117099;1177;69023;-75
2021/09/25 03:24:54;;;;;;;;;;;;;;;7.28;89.15;97657.83;116991;1177;69120;-70
2021/09/25 03:27:25;;;;;;;;;;;;;;;7.29;89.17;97655.16;117088;1177;59561;-70
2021/09/25 03:29:55;;;;;;;;;;;;;;;7.30;88.99;97661.23;117072;1177;59580;-75
2021/09/25 03:32:24;;;;;;;;;;;;;;;7.28;89.08;97664.27;117245;1176;71153;-69
2021/09/25 03:34:53;;;;;;;;;;;;;;;7.27;88.87;97663.80;117157;1177;69187;-70
2021/09/25 03:37:22;;;;;;;;;;;;;;;7.28;88.68;97669.12;116887;1177;68507;-70
2021/09/25 03:39:52;;;;;;;;;;;;;;;7.29;88.69;97673.22;117156;1176;59535;-70
2021/09/25 03:42:21;;;;;;;;;;;;;;;7.32;88.56;97676.21;117065;1177;59524;-69
2021/09/25 03:44:50;;;;;;;;;;;;;;;7.31;88.66;97676.61;117080;1177;70690;-70
2021/09/25 03:47:21;;;;;;;;;;;;;;;7.31;88.48;97673.66;116999;1177;69361;-70
2021/09/25 03:49:58;;;;;;;;;;;;;;;7.33;88.39;97677.36;116729;1179;69079;-72
2021/09/25 03:52:36;;;;;;;;;;;;;;;7.34;88.39;97681.09;117003;1177;59592;-70
2021/09/25 03:55:06;;;;;;;;;;;;;;;7.36;88.49;97679.98;116891;1179;59542;-70
2021/09/25 03:57:35;;;;;;;;;;;;;;;7.34;88.96;97682.14;116929;1179;71154;-74
2021/09/25 04:00:04;;;;;;;;;;;;;;;7.33;89.15;97683.55;116962;1177;68682;-74
2021/09/25 04:02:33;;;;;;;;;;;;;;;7.32;88.51;97684.50;116948;1177;69291;-76
2021/09/25 04:05:03;;;;;;;;;;;;;;;7.28;89.14;97687.16;117043;1177;59526;-73
2021/09/25 04:07:33;;;;;;;;;;;;;;;7.29;89.12;97691.98;116988;1177;59496;-73
2021/09/25 04:10:03;;;;;;;;;;;;;;;7.28;88.35;97692.49;116952;1177;70387;-72
2021/09/25 04:12:33;;;;;;;;;;;;;;;7.26;88.51;97693.67;117025;1177;69127;-69
2021/09/25 04:15:02;;;;;;;;;;;;;;;7.26;88.35;97696.30;116963;1177;68383;-71
2021/09/25 04:17:33;;;;;;;;;;;;;;;7.24;88.47;97701.45;116962;1177;59538;-73
2021/09/25 04:20:09;;;;;;;;;;;;;;;7.23;88.92;97704.08;117044;1177;59524;-74
2021/09/25 04:22:38;;;;;;;;;;;;;;;7.26;88.39;97706.16;117034;1177;71375;-75
2021/09/25 04:25:08;;;;;;;;;;;;;;;7.24;88.85;97709.39;116954;1177;68273;-73
2021/09/25 04:27:41;;;;;;;;;;;;;;;7.24;88.42;97711.64;116957;1177;70213;-72
2021/09/25 04:30:10;;;;;;;;;;;;;;;7.23;88.74;97714.47;117011;1177;59526;-71
2021/09/25 04:32:39;;;;;;;;;;;;;;;7.26;88.56;97719.20;116993;1179;59520;-72
2021/09/25 04:35:08;;;;;;;;;;;;;;;7.28;88.72;97722.35;116927;1177;70401;-71
2021/09/25 04:37:37;;;;;;;;;;;;;;;7.31;88.37;97719.75;116908;1177;69271;-70
2021/09/25 04:40:06;;;;;;;;;;;;;;;7.33;88.19;97723.80;116974;1177;69071;-72
2021/09/25 04:42:35;;;;;;;;;;;;;;;7.35;88.73;97724.95;117019;1177;59596;-74
2021/09/25 04:45:04;;;;;;;;;;;;;;;7.36;89.10;97729.19;117056;1177;59536;-74
2021/09/25 04:47:34;;;;;;;;;;;;;;;7.39;88.31;97734.75;117006;1177;70969;-72
2021/09/25 04:50:02;;;;;;;;;;;;;;;7.38;88.59;97740.15;117080;1177;69045;-69
2021/09/25 04:52:31;;;;;;;;;;;;;;;7.39;88.65;97748.08;117098;1177;69266;-72
2021/09/25 04:55:00;;;;;;;;;;;;;;;7.43;88.23;97753.45;117057;1177;59496;-74
2021/09/25 04:57:29;;;;;;;;;;;;;;;7.45;87.92;97754.71;117191;1177;59462;-71
2021/09/25 04:59:58;;;;;;;;;;;;;;;7.47;87.88;97754.44;116948;1178;71193;-70
2021/09/25 05:02:30;;;;;;;;;;;;;;;7.47;87.83;97756.19;117094;1177;68031;-71
2021/09/25 05:04:59;;;;;;;;;;;;;;;7.44;88.19;97757.71;117059;1177;68324;-71
2021/09/25 05:07:28;;;;;;;;;;;;;;;7.47;87.84;97765.51;117106;1177;59597;-71
2021/09/25 05:09:56;;;;;;;;;;;;;;;7.50;87.89;97768.33;117058;1176;59519;-71
2021/09/25 05:12:25;;;;;;;;;;;;;;;7.52;87.88;97770.98;117006;1177;70280;-72
2021/09/25 05:14:54;;;;;;;;;;;;;;;7.52;87.81;97772.50;117035;1177;69216;-74
2021/09/25 05:17:23;;;;;;;;;;;;;;;7.53;87.90;97776.66;117061;1177;68267;-72
2021/09/25 05:19:51;;;;;;;;;;;;;;;7.51;88.05;97779.16;117047;1177;59535;-72
2021/09/25 05:22:20;;;;;;;;;;;;;;;7.53;88.12;97779.76;117026;1177;59490;-74
2021/09/25 05:24:49;;;;;;;;;;;;;;;7.54;88.10;97781.63;117023;1177;70655;-70
2021/09/25 05:27:18;;;;;;;;;;;;;;;7.52;87.96;97781.89;117076;1177;69211;-71
2021/09/25 05:29:47;;;;;;;;;;;;;;;7.54;87.94;97783.52;117064;1177;67746;-73
2021/09/25 05:32:16;;;;;;;;;;;;;;;7.57;87.91;97791.49;117065;1177;59516;-75
2021/09/25 05:34:49;;;;;;;;;;;;;;;7.60;88.10;97788.91;117091;1177;59539;-74
2021/09/25 05:37:19;;;;;;;;;;;;;;;7.64;87.93;97791.27;117164;1177;70618;-77
2021/09/25 05:39:47;;;;;;;;;;;;;;;7.69;87.90;97794.33;116962;1178;69275;-76
2021/09/25 05:42:16;;;;;;;;;;;;;;;7.71;87.79;97793.19;117051;1177;69118;-71
2021/09/25 05:44:45;;;;;;;;;;;;;;;7.76;87.81;97794.98;117078;1177;59490;-72
2021/09/25 05:47:14;;;;;;;;;;;;;;;7.83;87.84;97794.45;117089;1177;59513;-73
2021/09/25 05:49:44;;;;;;;;;;;;;;;7.92;87.56;97793.90;117092;1177;71295;-73
2021/09/25 05:52:14;;;;;;;;;;;;;;;7.96;87.33;97793.34;117061;1177;69239;-76
2021/09/25 05:54:43;;;;;;;;;;;;;;;7.99;87.22;97791.62;117143;1177;69289;-72
2021/09/25 05:57:11;;;;;;;;;;;;;;;8.09;87.33;97791.20;117078;1177;59694;-71
2021/09/25 05:59:40;;;;;;;;;;;;;;;8.27;87.03;97794.39;117095;1177;59523;-73
2021/09/25 06:02:09;;;;;;;;;;;;;;;8.44;87.13;97790.81;116998;1177;72042;-74
2021/09/25 06:04:38;;;;;;;;;;;;;;;8.60;85.58;97786.57;117110;1177;69197;-71
2021/09/25 06:07:11;;;;;;;;;;;;;;;8.78;85.41;97785.67;117048;1177;69070;-72
2021/09/25 06:09:41;;;;;;;;;;;;;;;8.90;84.64;97793.11;117012;1177;59492;-72
2021/09/25 06:12:10;;;;;;;;;;;;;;;9.01;83.86;97793.33;117020;1177;59531;-70
2021/09/25 06:14:39;;;;;;;;;;;;;;;9.17;83.79;97795.30;116920;1178;71277;-74
2021/09/25 06:17:08;;;;;;;;;;;;;;;9.33;83.55;97800.43;117146;1177;69315;-71
2021/09/25 06:19:37;;;;;;;;;;;;;;;9.42;82.44;97806.86;117093;1176;68425;-70
2021/09/25 06:22:06;;;;;;;;;;;;;;;9.53;82.29;97808.42;117006;1177;59593;-73
2021/09/25 06:24:35;;;;;;;;;;;;;;;9.67;81.78;97818.30;116985;1177;59539;-74
2021/09/25 06:27:04;;;;;;;;;;;;;;;9.83;81.83;97819.06;117009;1177;70614;-72
2021/09/25 06:29:34;;;;;;;;;;;;;;;10.05;79.14;97818.14;117032;1177;69271;-70
2021/09/25 06:32:03;;;;;;;;;;;;;;;10.26;79.42;97820.67;116962;1177;70526;-73
2021/09/25 06:34:32;;;;;;;;;;;;;;;10.47;78.92;97827.52;117006;1177;59592;-71
2021/09/25 06:37:00;;;;;;;;;;;;;;;10.64;77.41;97830.59;117060;1177;59519;-71
2021/09/25 06:39:29;;;;;;;;;;;;;;;10.82;77.89;97832.34;117069;1177;70409;-70
2021/09/25 06:41:58;;;;;;;;;;;;;;;11.18;78.63;97842.59;117041;1177;68758;-72
2021/09/25 06:44:27;;;;;;;;;;;;;;;11.73;76.62;97842.34;116972;1177;69687;-73
2021/09/25 06:46:56;;;;;;;;;;;;;;;12.17;72.67;97845.96;117037;1177;59564;-71
2021/09/25 06:49:24;;;;;;;;;;;;;;;12.88;72.80;97843.20;117016;1177;59529;-71
2021/09/25 06:51:53;;;;;;;;;;;;;;;13.73;75.31;97846.14;117044;1176;71647;-69
2021/09/25 06:54:22;;;;;;;;;;;;;;;14.44;72.83;97842.73;117060;1176;68439;-73
2021/09/25 06:56:51;;;;;;;;;;;;;;;14.82;68.75;97849.98;117226;1177;68579;-71
2021/09/25 06:59:20;;;;;;;;;;;;;;;14.94;66.81;97851.27;117028;1177;59488;-72
2021/09/25 07:01:49;;;;;;;;;;;;;;;14.92;66.41;97855.29;117008;1177;59551;-70
2021/09/25 07:04:21;;;;;;;;;;;;;;;14.90;68.24;97861.73;116979;1177;71436;-72
2021/09/25 07:06:50;;;;;;;;;;;;;;;15.15;71.15;97867.89;117043;1177;68306;-73
2021/09/25 07:09:19;;;;;;;;;;;;;;;15.55;68.24;97867.35;117005;1177;69376;-72
2021/09/25 07:11:48;;;;;;;;;;;;;;;15.67;62.26;97865.27;117024;1177;59526;-71
2021/09/25 07:14:17;;;;;;;;;;;;;;;15.47;60.46;97869.55;117021;1177;59514;-73
2021/09/25 07:16:46;;;;;;;;;;;;;;;15.47;59.68;97871.32;117005;1177;71199;-72
2021/09/25 07:19:15;;;;;;;;;;;;;;;15.76;61.41;97865.89;117050;1177;69060;-72
2021/09/25 07:21:44;;;;;;;;;;;;;;;16.14;60.04;97871.48;117001;1177;69845;-71
2021/09/25 07:24:12;;;;;;;;;;;;;;;16.64;59.40;97872.87;117036;1177;59513;-71
2021/09/25 07:26:41;;;;;;;;;;;;;;;17.11;58.04;97876.09;117049;1177;59600;-73
2021/09/25 07:29:12;;;;;;;;;;;;;;;17.39;57.31;97874.14;117072;1177;71725;-75
2021/09/25 07:31:41;;;;;;;;;;;;;;;17.63;56.56;97875.69;117042;1177;69312;-72
2021/09/25 07:34:10;;;;;;;;;;;;;;;18.02;54.46;97879.64;117026;1177;68301;-73
2021/09/25 07:36:38;;;;;;;;;;;;;;;18.19;55.81;97879.36;117048;1177;59969;-71
2021/09/25 07:39:07;;;;;;;;;;;;;;;18.67;54.31;97882.81;117045;1177;59477;-72
2021/09/25 07:41:36;;;;;;;;;;;;;;;19.06;52.73;97884.63;116957;1177;71776;-71
2021/09/25 07:44:06;;;;;;;;;;;;;;;19.24;53.30;97885.45;117054;1177;67940;-71
2021/09/25 07:46:35;;;;;;;;;;;;;;;19.55;52.98;97886.91;117090;1177;68337;-72
2021/09/25 07:49:05;;;;;;;;;;;;;;;20.05;53.89;97886.08;117086;1177;59955;-72
2021/09/25 07:51:34;;;;;;;;;;;;;;;20.04;50.77;97878.67;117093;1177;59543;-72
2021/09/25 07:54:03;;;;;;;;;;;;;;;20.23;50.41;97884.09;117058;1177;71504;-73
2021/09/25 07:56:32;;;;;;;;;;;;;;;20.27;49.47;97890.58;117003;1177;69389;-73
2021/09/25 07:59:01;;;;;;;;;;;;;;;20.62;50.25;97889.73;116972;1177;68259;-71
2021/09/25 08:01:35;;;;;;;;;;;;;;;21.03;50.26;97893.70;116951;1177;59535;-71
2021/09/25 08:04:05;;;;;;;;;;;;;;;21.11;45.61;97894.98;117071;1177;59475;-72
2021/09/25 08:06:34;;;;;;;;;;;;;;;20.24;46.09;97895.05;117036;1177;71452;-72
2021/09/25 08:09:03;;;;;;;;;;;;;;;20.56;47.44;97893.94;117041;1177;68587;-72
2021/09/25 08:11:32;;;;;;;;;;;;;;;20.99;48.21;97897.13;116998;1177;68428;-73
2021/09/25 08:14:04;;;;;;;;;;;;;;;21.24;46.71;97902.45;116971;1177;59507;-73
2021/09/25 08:16:37;;;;;;;;;;;;;;;21.43;46.59;97909.94;117061;1177;59535;-71
2021/09/25 08:19:06;;;;;;;;;;;;;;;21.75;47.20;97902.85;116968;1178;71475;-70
2021/09/25 08:21:35;;;;;;;;;;;;;;;22.32;45.55;97904.61;116939;1177;67826;-72
2021/09/25 08:24:03;;;;;;;;;;;;;;;22.92;43.85;97906.64;117041;1177;69300;-72
2021/09/25 08:27:26;;;;;;;8.20;6.60;;;;;;;23.04;42.77;97906.30;114819;1194;596619;-72
2021/09/25 08:29:55;;;;;;;10.10;8.60;;;;;;;23.21;40.60;97909.20;116539;1182;57624;-71
2021/09/25 08:32:25;;;;;;;7.30;6.60;;;;;;;23.03;40.95;97911.85;116611;1182;57453;-72
2021/09/25 08:34:54;;;;;;;10.70;7.20;;;;;;;22.56;40.08;97912.94;116576;1184;68982;-73
2021/09/25 08:37:22;;;;;;;7.60;6.80;;;;;;;22.63;41.28;97913.52;116248;1183;68758;-72
2021/09/25 08:39:52;;;;;;;6.90;5.40;;;;;;;23.08;40.96;97909.31;116573;1182;68635;-78
2021/09/25 08:42:21;;;;;;;;;;;;;;;23.48;40.32;97913.52;116543;1181;57447;-74
2021/09/25 08:44:52;;;;;;;7.10;6.40;;;;;;;23.60;39.61;97908.30;116483;1182;57475;-77
2021/09/25 08:47:22;;;;;;;8.20;5.80;;;;;;;23.37;38.84;97911.00;116509;1183;68678;-73
2021/09/25 08:49:51;;;;;;;9.40;8.10;;;;;;;23.55;39.26;97911.29;116676;1182;68644;-74
2021/09/25 08:52:20;;;;;;;8.40;7.30;;;;;;;23.42;38.96;97907.75;116515;1176;69152;-73
2021/09/25 08:54:49;;;;;;;9.90;6.40;;;;;;;23.53;38.80;97912.00;116635;1182;57884;-73
2021/09/25 08:57:18;;;;;;;8.40;6.20;;;;;;;23.82;38.50;97911.23;116552;1183;57868;-73
2021/09/25 08:59:47;;;;;;;5.80;4.70;;;;;;;24.00;38.39;97912.27;116578;1184;69583;-72
2021/09/25 09:02:19;;;;;;;5.80;5.20;;;;;;;24.39;38.59;97910.57;116568;1183;69223;-72
2021/09/25 09:04:54;;;;;;;7.60;6.50;;;;;;;24.69;37.91;97907.64;116322;1183;68507;-75
2021/09/25 09:07:28;;;;;;;8.00;7.00;;;;;;;24.53;36.56;97909.38;116566;1183;57936;-73
2021/09/25 09:09:58;;;;;;;7.10;5.10;;;;;;;24.68;38.17;97911.29;116562;1184;57871;-74
2021/09/25 09:12:28;;;;;;;8.50;7.00;;;;;;;25.05;35.69;97917.56;116630;1182;69104;-75
2021/09/25 09:14:57;;;;;;;8.20;7.40;;;;;;;24.70;35.26;97913.15;116574;1173;69317;-73
2021/09/25 09:17:32;;;;;;;6.30;5.60;;;;;;;24.24;35.94;97912.98;116651;1182;68558;-72
2021/09/25 09:20:09;;;;;;;10.00;7.40;;;;;;;24.31;36.04;97909.19;116573;1182;57938;-73
2021/09/25 09:22:38;;;;;;;7.20;5.00;;;;;;;24.25;36.33;97909.10;116609;1182;58332;-74
2021/09/25 09:25:07;;;;;;;5.60;5.00;;;;;;;24.88;37.11;97913.23;116581;1184;69065;-73
2021/09/25 09:27:44;;;;;;;6.50;4.60;;;;;;;25.40;36.60;97908.55;116603;1183;69220;-74
2021/09/25 09:30:14;;;;;;;7.10;5.50;;;;;;;26.01;35.13;97905.98;116568;1181;68552;-75
2021/09/25 09:32:48;;;;;;;6.80;5.70;;;;;;;26.48;34.06;97902.72;116568;1182;58320;-75
2021/09/25 09:35:19;;;;;;;5.80;5.00;;;;;;;26.50;33.45;97900.42;116585;1182;57907;-73
2021/09/25 09:37:55;;;;;;;5.90;5.10;;;;;;;26.66;33.11;97901.09;116571;1182;69381;-74
2021/09/25 09:40:25;;;;;;;5.30;4.30;;;;;;;26.91;32.48;97901.23;116578;1182;69262;-76
2021/09/25 09:42:54;;;;;;;6.10;5.10;;;;;;;27.08;33.12;97904.33;116978;1179;68841;-74
2021/09/25 09:45:28;;;;;;;5.70;4.70;;;;;;;27.32;33.19;97908.04;116998;1178;57921;-75
2021/09/25 09:47:59;;;;;;;4.70;4.20;;;;;;;27.61;33.24;97908.20;117003;1178;57984;-75
2021/09/25 09:50:29;;;;;;;9.00;7.30;;;;;;;27.83;31.46;97902.61;117038;1177;69673;-75
2021/09/25 09:53:14;;;;;;;5.30;4.10;;;;;;;26.03;31.77;97900.61;117121;1177;68420;-74
2021/09/25 09:55:46;;;;;;;7.00;5.60;;;;;;;26.98;32.26;97896.91;117055;1177;68441;-74
2021/09/25 09:58:15;;;;;;;;;;;;;;;27.37;32.17;97897.46;117060;1177;57935;-73
2021/09/25 10:00:44;;;;;;;5.00;4.50;;;;;;;27.84;31.62;97894.40;116931;1178;57861;-74
2021/09/25 10:03:13;;;;;;;;;;;;;;;27.99;31.14;97897.89;116937;1179;69209;-74
2021/09/25 10:05:44;;;;;;;5.60;4.90;;;;;;;28.53;30.70;97894.95;117037;1179;69182;-74
2021/09/25 10:08:13;;;;;;;5.50;3.90;;;;;;;28.87;29.82;97895.74;116991;1178;68609;-76
2021/09/25 10:10:42;;;;;;;6.60;5.90;;;;;;;29.18;28.92;97889.50;116888;1179;57961;-75
2021/09/25 10:13:17;;;;;;;6.70;6.00;;;;;;;27.91;27.22;97885.89;116910;1180;57917;-75
2021/09/25 10:15:47;;;;;;;6.10;4.50;;;;;;;26.64;29.02;97892.48;117053;1178;70427;-73
2021/09/25 10:18:19;;;;;;;5.50;3.50;;;;;;;24.57;31.38;97889.49;116982;1178;68702;-74
2021/09/25 10:20:48;;;;;;;5.80;4.80;;;;;;;24.62;31.88;97884.54;116951;1180;68437;-75
2021/09/25 10:23:17;;;;;;;;;;;;;;;25.10;32.04;97887.77;116964;1178;57849;-74
2021/09/25 10:25:46;;;;;;;;;;;;;;;23.84;32.66;97884.95;116990;1178;58336;-74
2021/09/25 10:28:23;;;;;;;4.50;3.30;;;;;;;24.18;32.01;97884.64;116987;1179;69845;-74
2021/09/25 10:30:52;;;;;;;7.70;4.50;;;;;;;23.64;32.59;97885.39;116976;1180;68266;-74
2021/09/25 10:33:24;;;;;;;6.40;4.40;;;;;;;23.72;32.84;97885.36;116985;1180;68485;-71
2021/09/25 10:35:54;;;;;;;6.80;5.10;;;;;;;23.08;33.97;97887.02;116959;1179;57916;-73
2021/09/25 10:38:35;;;;;;;6.50;5.30;;;;;;;22.44;35.57;97878.35;116867;1180;58060;-74
2021/09/25 10:41:25;;;;;;;5.60;4.70;;;;;;;23.39;33.83;97876.59;116927;1179;69622;-74
2021/09/25 10:43:55;;;;;;;5.70;4.60;;;;;;;23.89;34.23;97874.52;116974;1179;69990;-73
2021/09/25 10:46:24;;;;;;;5.10;3.40;;;;;;;24.65;32.46;97875.10;116924;1179;69296;-76
2021/09/25 10:48:54;;;;;;;3.30;2.90;;;;;;;25.78;32.01;97875.20;117003;1180;57923;-73
2021/09/25 10:51:23;;;;;;;5.20;4.00;;;;;;;26.90;30.45;97873.73;116943;1179;57997;-76
2021/09/25 10:54:01;;;;;;;6.20;4.20;;;;;;;28.01;28.74;97878.30;116983;1178;69875;-74
2021/09/25 10:56:30;;;;;;;5.40;3.70;;;;;;;28.83;27.65;97888.55;117002;1179;68769;-74
2021/09/25 10:59:06;;;;;;;6.80;5.50;;;;;;;29.11;26.26;97880.30;116567;1179;68498;-74
2021/09/25 11:01:38;;;;;;;9.70;6.90;;;;;;;26.20;28.71;97879.50;116986;1180;57894;-74
2021/09/25 11:04:12;;;;;;;5.80;5.00;;;;;;;26.68;28.27;97875.14;117014;1178;57929;-75
2021/09/25 11:06:48;;;;;;;6.50;5.00;;;;;;;27.38;29.27;97871.16;117052;1180;68915;-73
2021/09/25 11:09:38;;;;;;;5.80;4.20;;;;;;;27.94;28.22;97872.84;116985;1179;69171;-75
2021/09/25 11:12:12;;;;;;;6.90;4.60;;;;;;;28.50;28.03;97874.33;116977;1179;69237;-74
2021/09/25 11:14:47;;;;;;;5.90;4.50;;;;;;;29.45;27.14;97878.42;117028;1179;57865;-72
2021/09/25 11:17:18;;;;;;;5.80;4.30;;;;;;;30.04;25.30;97875.98;116965;1179;57996;-74
2021/09/25 11:19:50;;;;;;;8.30;6.60;;;;;;;29.59;25.58;97878.73;116955;1179;69572;-73
2021/09/25 11:22:23;;;;;;;8.10;6.20;;;;;;;26.92;28.06;97883.17;117029;1178;69147;-73
2021/09/25 11:24:56;;;;;;;5.10;4.10;;;;;;;27.52;27.85;97880.04;117018;1179;69323;-74
2021/09/25 11:27:31;;;;;;;6.90;5.00;;;;;;;27.82;27.49;97878.91;116885;1179;57925;-76
2021/09/25 11:30:04;;;;;;;6.40;4.40;;;;;;;27.73;27.59;97877.66;116712;1179;58265;-76
2021/09/25 11:32:41;;;;;;;6.10;4.80;;;;;;;27.58;27.97;97880.82;117015;1178;68849;-74
2021/09/25 11:35:19;;;;;;;5.20;3.80;;;;;;;27.48;28.64;97877.83;117028;1179;68488;-73
2021/09/25 11:38:04;;;;;;;10.90;8.30;;;;;;;28.19;28.05;97875.27;116955;1179;69108;-75
2021/09/25 11:40:36;;;;;;;5.50;4.90;;;;;;;28.26;27.72;97877.40;117021;1178;57938;-76
2021/09/25 11:43:06;;;;;;;5.40;3.90;;;;;;;27.73;28.01;97874.04;117049;1179;58403;-75
2021/09/25 11:45:39;;;;;;;6.70;4.70;;;;;;;26.54;28.17;97872.02;117010;1178;68907;-75
2021/09/25 11:48:11;;;;;;;6.70;5.30;;;;;;;25.34;30.27;97874.39;117041;1178;68467;-75
2021/09/25 11:50:43;;;;;;;5.60;3.20;;;;;;;24.60;32.06;97870.65;117034;1170;68326;-76
2021/09/25 11:53:15;;;;;;;6.20;4.60;;;;;;;24.78;31.76;97873.46;116977;1179;57923;-74
2021/09/25 11:55:45;;;;;;;5.60;3.80;;;;;;;24.91;32.16;97877.92;117028;1180;57891;-75
2021/09/25 11:58:20;;;;;;;5.90;3.60;;;;;;;24.99;31.46;97878.08;116968;1179;68782;-73
2021/09/25 12:00:52;;;;;;;7.20;5.30;;;;;;;23.92;32.26;97874.23;117067;1178;68467;-75
2021/09/25 12:03:28;;;;;;;5.60;4.00;;;;;;;23.68;33.21;97871.92;117044;1178;68455;-75
2021/09/25 12:06:00;;;;;;;5.60;3.90;;;;;;;24.75;32.27;97875.15;116980;1179;57923;-74
2021/09/25 12:08:31;;;;;;;4.00;3.00;;;;;;;25.78;30.19;97870.36;117027;1178;57865;-74
2021/09/25 12:11:07;;;;;;;7.60;3.90;;;;;;;26.83;29.19;97871.19;117096;1177;69917;-76
2021/09/25 12:13:41;;;;;;;4.90;2.80;;;;;;;26.84;28.75;97874.91;117098;1177;68483;-74
2021/09/25 12:16:16;;;;;;;5.80;3.20;;;;;;;26.78;29.40;97871.58;117004;1177;68495;-74
2021/09/25 12:18:51;;;;;;;2.60;2.00;;;;;;;26.09;30.45;97867.49;116964;1180;57910;-75
2021/09/25 12:21:23;;;;;;;4.20;3.10;;;;;;;25.97;31.01;97871.55;116988;1179;57922;-74
2021/09/25 12:24:06;;;;;;;2.60;2.20;;;;;;;25.50;30.84;97868.96;117011;1179;69835;-74
2021/09/25 12:26:43;;;;;;;2.80;2.40;;;;;;;25.46;31.42;97868.36;116970;1174;68605;-74
2021/09/25 12:29:15;;;;;;;3.30;2.40;;;;;;;25.63;31.49;97863.02;116979;1177;69223;-75
2021/09/25 12:31:44;;;;;;;5.20;3.70;;;;;;;26.03;31.13;97858.40;117022;1177;57864;-76
2021/09/25 12:34:14;;;;;;;5.40;3.50;;;;;;;26.15;31.00;97857.76;116986;1178;57979;-74
2021/09/25 12:36:46;;;;;;;4.10;2.70;;;;;;;26.29;30.95;97855.79;117006;1178;68607;-74